createdAt,value
2019-01-25T00:02:25.114Z,85.60
2019-01-25T00:04:55.575Z,85.50
2019-01-25T00:07:26.026Z,85.44
2019-01-25T00:09:58.799Z,85.20
2019-01-25T00:12:28.669Z,85.25
2019-01-25T00:14:59.173Z,85.34
2019-01-25T00:17:29.625Z,85.42
2019-01-25T00:20:00.468Z,85.41
2019-01-25T00:22:30.917Z,85.53
2019-01-25T00:25:01.423Z,85.30
2019-01-25T00:27:31.930Z,85.03
2019-01-25T00:30:02.403Z,84.96
2019-01-25T00:32:32.817Z,84.77
2019-01-25T00:35:03.293Z,85.01
2019-01-25T00:37:33.779Z,84.85
2019-01-25T00:40:06.338Z,85.21
2019-01-25T00:42:37.017Z,85.31
2019-01-25T00:45:08.940Z,85.23
2019-01-25T00:47:39.389Z,85.21
2019-01-25T00:50:14.001Z,85.17
2019-01-25T00:52:44.461Z,85.03
2019-01-25T00:55:15.102Z,85.03
2019-01-25T00:57:45.582Z,84.94
2019-01-25T01:00:21.703Z,84.98
2019-01-25T01:02:52.650Z,85.07
2019-01-25T01:05:23.698Z,84.99
2019-01-25T01:07:54.374Z,85.06
2019-01-25T01:10:24.920Z,84.97
2019-01-25T01:12:55.611Z,84.81
2019-01-25T01:15:26.102Z,84.69
2019-01-25T01:17:56.553Z,84.88
2019-01-25T01:20:26.991Z,85.06
2019-01-25T01:22:57.463Z,85.18
2019-01-25T01:25:27.907Z,85.08
2019-01-25T01:27:58.400Z,85.17
2019-01-25T01:30:28.849Z,84.91
2019-01-25T01:32:59.662Z,84.94
2019-01-25T01:35:30.226Z,85.03
2019-01-25T01:38:01.110Z,85.42
2019-01-25T01:40:31.605Z,85.35
2019-01-25T01:43:02.051Z,85.31
2019-01-25T01:45:32.515Z,85.13
2019-01-25T01:48:03.040Z,85.04
2019-01-25T01:50:33.665Z,85.05
2019-01-25T01:53:04.162Z,85.08
2019-01-25T01:55:34.601Z,85.08
2019-01-25T01:58:05.073Z,84.98
2019-01-25T02:00:35.589Z,84.91
2019-01-25T02:03:06.239Z,84.91
2019-01-25T02:05:37.123Z,85.03
2019-01-25T02:08:07.660Z,85.14
2019-01-25T02:10:38.548Z,85.17
2019-01-25T02:13:09.425Z,85.18
2019-01-25T02:15:39.867Z,85.36
2019-01-25T02:18:10.374Z,85.28
2019-01-25T02:20:40.818Z,85.44
2019-01-25T02:23:11.277Z,85.44
2019-01-25T02:25:41.742Z,85.39
2019-01-25T02:28:12.196Z,85.32
2019-01-25T02:30:43.150Z,85.32
2019-01-25T02:33:13.595Z,85.51
2019-01-25T02:35:44.039Z,85.38
2019-01-25T02:38:14.508Z,85.43
2019-01-25T02:40:44.984Z,85.67
2019-01-25T02:43:15.470Z,85.67
2019-01-25T02:45:45.920Z,85.65
2019-01-25T02:48:16.369Z,85.60
2019-01-25T02:50:46.850Z,85.79
2019-01-25T02:53:17.290Z,85.67
2019-01-25T02:55:47.849Z,85.61
2019-01-25T02:58:18.295Z,85.62
2019-01-25T03:00:48.740Z,85.10
2019-01-25T03:03:19.200Z,85.12
2019-01-25T03:05:50.083Z,84.71
2019-01-25T03:08:20.579Z,84.75
2019-01-25T03:10:51.020Z,84.92
2019-01-25T03:13:21.458Z,84.82
2019-01-25T03:15:51.932Z,84.65
2019-01-25T03:18:22.446Z,84.52
2019-01-25T03:20:52.955Z,84.77
2019-01-25T03:23:23.399Z,84.82
2019-01-25T03:25:53.839Z,84.71
2019-01-25T03:28:24.738Z,85.06
2019-01-25T03:30:55.192Z,84.79
2019-01-25T03:33:25.675Z,84.76
2019-01-25T03:35:56.124Z,84.53
2019-01-25T03:38:26.563Z,84.51
2019-01-25T03:40:57.055Z,84.07
2019-01-25T03:43:27.706Z,84.42
2019-01-25T03:45:58.199Z,84.38
2019-01-25T03:48:28.649Z,84.32
2019-01-25T03:50:59.518Z,84.50
2019-01-25T03:53:30.158Z,83.94
2019-01-25T03:56:00.600Z,84.09
2019-01-25T03:58:31.084Z,83.90
2019-01-25T04:01:01.556Z,83.54
2019-01-25T04:03:32.005Z,83.26
2019-01-25T04:06:02.815Z,83.27
2019-01-25T04:08:33.266Z,83.53
2019-01-25T04:11:04.212Z,83.56
2019-01-25T04:13:34.803Z,83.57
2019-01-25T04:16:05.560Z,83.90
2019-01-25T04:18:36.048Z,83.71
2019-01-25T04:21:06.487Z,83.27
2019-01-25T04:23:37.367Z,83.53
2019-01-25T04:26:07.818Z,83.78
2019-01-25T04:28:38.283Z,83.50
2019-01-25T04:31:08.768Z,83.68
2019-01-25T04:33:39.222Z,83.91
2019-01-25T04:36:09.685Z,83.86
2019-01-25T04:38:40.169Z,84.20
2019-01-25T04:41:11.706Z,84.25
2019-01-25T04:43:42.494Z,84.14
2019-01-25T04:46:12.987Z,84.02
2019-01-25T04:48:43.454Z,84.17
2019-01-25T04:51:14.651Z,83.87
2019-01-25T04:53:45.532Z,83.61
2019-01-25T04:56:15.992Z,83.71
2019-01-25T04:58:46.456Z,83.50
2019-01-25T05:01:17.291Z,83.62
2019-01-25T05:03:47.748Z,83.16
2019-01-25T05:06:18.023Z,82.89
2019-01-25T05:08:48.509Z,83.01
2019-01-25T05:11:20.446Z,83.17
2019-01-25T05:13:51.000Z,82.97
2019-01-25T05:16:21.555Z,83.06
2019-01-25T05:18:52.085Z,83.02
2019-01-25T05:21:26.140Z,82.83
2019-01-25T05:23:56.864Z,82.89
2019-01-25T05:26:27.366Z,82.97
2019-01-25T05:28:57.829Z,83.02
2019-01-25T05:31:29.416Z,82.93
2019-01-25T05:33:59.900Z,82.73
2019-01-25T05:36:30.354Z,82.43
2019-01-25T05:39:00.872Z,82.27
2019-01-25T05:41:31.329Z,82.32
2019-01-25T05:44:02.787Z,81.85
2019-01-25T05:46:33.632Z,81.82
2019-01-25T05:49:04.182Z,82.25
2019-01-25T05:51:34.961Z,82.40
2019-01-25T05:54:06.151Z,82.07
2019-01-25T05:56:42.595Z,82.53
2019-01-25T05:59:13.063Z,82.29
2019-01-25T06:01:46.630Z,82.56
2019-01-25T06:04:17.902Z,82.35
2019-01-25T06:06:48.376Z,81.85
2019-01-25T06:09:22.206Z,81.83
2019-01-25T06:11:52.662Z,81.63
2019-01-25T06:14:23.535Z,82.07
2019-01-25T06:16:54.007Z,82.07
2019-01-25T06:19:24.740Z,82.09
2019-01-25T06:21:57.317Z,82.27
2019-01-25T06:24:27.801Z,82.07
2019-01-25T06:26:58.247Z,81.89
2019-01-25T06:29:33.605Z,81.79
2019-01-25T06:32:04.614Z,82.20
2019-01-25T06:34:35.071Z,82.23
2019-01-25T06:37:05.519Z,82.12
2019-01-25T06:39:36.019Z,82.40
2019-01-25T06:42:06.688Z,82.08
2019-01-25T06:44:37.215Z,82.22
2019-01-25T06:47:07.677Z,82.59
2019-01-25T06:49:38.275Z,82.54
2019-01-25T06:52:08.766Z,82.39
2019-01-25T06:54:39.236Z,82.12
2019-01-25T06:57:22.678Z,81.95
2019-01-25T06:59:53.139Z,82.23
2019-01-25T07:02:28.989Z,81.93
2019-01-25T07:04:59.806Z,82.07
2019-01-25T07:07:35.550Z,82.31
2019-01-25T07:10:09.391Z,82.50
2019-01-25T07:12:39.856Z,80.91
2019-01-25T07:15:12.119Z,81.95
2019-01-25T07:17:43.266Z,82.14
2019-01-25T07:20:14.061Z,81.63
2019-01-25T07:22:44.525Z,80.92
2019-01-25T07:25:16.204Z,81.69
2019-01-25T07:27:47.383Z,81.60
2019-01-25T07:30:17.972Z,80.84
2019-01-25T07:32:48.502Z,81.57
2019-01-25T07:35:18.986Z,81.91
2019-01-25T07:37:49.449Z,80.83
2019-01-25T07:40:20.004Z,81.45
2019-01-25T07:42:50.488Z,80.98
2019-01-25T07:45:21.012Z,81.37
2019-01-25T07:47:51.875Z,80.28
2019-01-25T07:50:22.360Z,80.33
2019-01-25T07:52:52.954Z,80.66
2019-01-25T07:55:23.402Z,80.39
2019-01-25T07:57:53.991Z,80.50
2019-01-25T08:00:24.436Z,81.59
2019-01-25T08:02:55.067Z,81.04
2019-01-25T08:05:25.555Z,81.65
2019-01-25T08:07:56.034Z,81.89
2019-01-25T08:10:26.551Z,81.89
2019-01-25T08:12:57.046Z,82.90
2019-01-25T08:15:28.077Z,82.33
2019-01-25T08:17:58.542Z,82.33
2019-01-25T08:20:29.041Z,83.07
2019-01-25T08:22:59.574Z,82.67
2019-01-25T08:25:30.039Z,82.56
2019-01-25T08:28:00.490Z,82.56
2019-01-25T08:30:30.985Z,82.22
2019-01-25T08:33:01.535Z,82.22
2019-01-25T08:35:32.026Z,81.75
2019-01-25T08:38:03.048Z,81.96
2019-01-25T08:40:33.692Z,81.98
2019-01-25T08:43:04.553Z,82.56
2019-01-25T08:45:35.009Z,82.16
2019-01-25T08:48:05.916Z,81.71
2019-01-25T08:50:36.371Z,81.21
2019-01-25T08:53:06.883Z,81.71
2019-01-25T08:55:37.889Z,81.53
2019-01-25T08:58:08.302Z,81.87
2019-01-25T09:00:38.813Z,81.76
2019-01-25T09:03:09.342Z,82.24
2019-01-25T09:05:39.800Z,82.81
2019-01-25T09:08:10.285Z,83.17
2019-01-25T09:10:41.107Z,83.17
2019-01-25T09:13:11.942Z,82.49
2019-01-25T09:15:42.398Z,82.49
2019-01-25T09:18:12.913Z,83.47
2019-01-25T09:20:43.399Z,84.14
2019-01-25T09:23:13.850Z,84.14
2019-01-25T09:25:44.347Z,83.15
2019-01-25T09:28:15.954Z,83.15
2019-01-25T09:30:46.343Z,83.57
2019-01-25T09:33:16.821Z,83.57
2019-01-25T09:35:47.277Z,83.45
2019-01-25T09:38:18.142Z,84.13
2019-01-25T09:40:48.596Z,79.87
2019-01-25T09:43:19.313Z,79.87
2019-01-25T09:45:49.790Z,80.55
2019-01-25T09:48:20.263Z,80.55
2019-01-25T09:50:52.914Z,80.97
2019-01-25T09:53:22.913Z,79.01
2019-01-25T09:55:53.366Z,79.01
2019-01-25T09:58:23.907Z,79.43
2019-01-25T10:01:04.135Z,77.81
2019-01-25T10:03:34.620Z,78.90
2019-01-25T10:06:05.075Z,80.48
2019-01-25T10:08:35.887Z,80.28
2019-01-25T10:11:06.809Z,79.73
2019-01-25T10:13:37.258Z,79.33
2019-01-25T10:16:07.766Z,79.33
2019-01-25T10:18:38.262Z,79.66
2019-01-25T10:21:08.712Z,80.25
2019-01-25T10:23:39.389Z,80.25
2019-01-25T10:26:09.809Z,79.97
2019-01-25T10:28:40.306Z,79.13
2019-01-25T10:31:11.124Z,79.41
2019-01-25T10:33:42.072Z,80.85
2019-01-25T10:36:12.546Z,79.85
2019-01-25T10:38:42.999Z,79.21
2019-01-25T10:41:13.486Z,79.21
2019-01-25T10:43:43.935Z,79.68
2019-01-25T10:46:14.417Z,79.75
2019-01-25T10:48:44.897Z,79.75
2019-01-25T10:51:15.355Z,79.37
2019-01-25T10:53:46.217Z,79.16
2019-01-25T10:56:16.674Z,78.59
2019-01-25T10:58:47.126Z,78.59
2019-01-25T11:01:17.603Z,77.29
2019-01-25T11:03:48.054Z,78.25
2019-01-25T11:06:18.926Z,78.25
2019-01-25T11:08:49.926Z,77.67
2019-01-25T11:11:20.379Z,78.94
2019-01-25T11:13:50.860Z,78.94
2019-01-25T11:16:21.316Z,78.77
2019-01-25T11:18:51.808Z,78.83
2019-01-25T11:21:22.267Z,78.89
2019-01-25T11:23:53.285Z,78.38
2019-01-25T11:26:23.767Z,77.33
2019-01-25T11:28:54.221Z,77.33
2019-01-25T11:31:24.769Z,78.31
2019-01-25T11:33:55.223Z,78.88
2019-01-25T11:36:25.689Z,78.20
2019-01-25T11:38:56.170Z,78.20
2019-01-25T11:41:26.621Z,78.84
2019-01-25T11:43:57.115Z,78.82
2019-01-25T11:46:27.591Z,78.82
2019-01-25T11:48:58.043Z,79.13
2019-01-25T11:51:28.536Z,78.72
2019-01-25T11:53:58.987Z,78.72
2019-01-25T11:56:29.478Z,76.71
2019-01-25T11:59:00.364Z,76.67
2019-01-25T12:01:30.810Z,77.76
2019-01-25T12:04:01.657Z,77.84
2019-01-25T12:06:33.354Z,77.84
2019-01-25T12:09:05.667Z,78.16
2019-01-25T12:11:36.113Z,78.16
2019-01-25T12:14:06.637Z,78.19
2019-01-25T12:16:37.204Z,77.33
2019-01-25T12:19:07.660Z,77.42
2019-01-25T12:21:38.143Z,76.64
2019-01-25T12:24:08.596Z,76.64
2019-01-25T12:26:39.135Z,77.30
2019-01-25T12:29:09.543Z,76.27
2019-01-25T12:31:40.066Z,77.87
2019-01-25T12:34:10.546Z,76.18
2019-01-25T12:36:41.414Z,76.18
2019-01-25T12:39:11.910Z,77.42
2019-01-25T12:41:42.745Z,77.42
2019-01-25T12:44:13.203Z,77.38
2019-01-25T12:46:43.786Z,77.38
2019-01-25T12:49:14.242Z,78.36
2019-01-25T12:51:51.856Z,76.83
2019-01-25T12:54:22.412Z,76.79
2019-01-25T12:56:53.258Z,76.79
2019-01-25T12:59:23.733Z,75.96
2019-01-25T13:01:54.233Z,76.53
2019-01-25T13:04:25.082Z,75.10
2019-01-25T13:06:55.529Z,75.10
2019-01-25T13:09:26.054Z,75.75
2019-01-25T13:11:56.519Z,76.10
2019-01-25T13:14:26.969Z,76.11
2019-01-25T13:16:57.842Z,75.56
2019-01-25T13:19:28.300Z,75.13
2019-01-25T13:21:59.090Z,75.62
2019-01-25T13:24:29.598Z,75.62
2019-01-25T13:27:00.148Z,74.80
2019-01-25T13:29:30.603Z,75.27
2019-01-25T13:32:01.187Z,75.27
2019-01-25T13:34:31.767Z,73.83
2019-01-25T13:37:02.229Z,74.26
2019-01-25T13:39:32.749Z,73.97
2019-01-25T13:42:03.231Z,73.97
2019-01-25T13:44:33.683Z,74.33
2019-01-25T13:47:04.206Z,74.56
2019-01-25T13:49:35.031Z,74.56
2019-01-25T13:52:05.485Z,72.77
2019-01-25T13:54:35.986Z,72.63
2019-01-25T13:57:06.500Z,72.63
2019-01-25T13:59:36.957Z,71.91
2019-01-25T14:02:08.139Z,71.91
2019-01-25T14:04:38.594Z,72.78
2019-01-25T14:07:09.526Z,73.55
2019-01-25T14:09:40.028Z,73.55
2019-01-25T14:12:10.501Z,74.01
2019-01-25T14:14:40.959Z,74.32
2019-01-25T14:17:11.855Z,74.32
2019-01-25T14:19:42.745Z,74.55
2019-01-25T14:22:13.224Z,73.57
2019-01-25T14:24:43.731Z,73.59
2019-01-25T14:27:14.546Z,74.15
2019-01-25T14:29:45.007Z,75.41
2019-01-25T14:32:19.424Z,75.49
2019-01-25T14:34:49.886Z,74.96
2019-01-25T14:37:20.347Z,74.96
2019-01-25T14:39:51.241Z,73.51
2019-01-25T14:42:21.747Z,75.53
2019-01-25T14:44:52.956Z,74.46
2019-01-25T14:47:23.457Z,74.46
2019-01-25T14:49:53.905Z,74.94
2019-01-25T14:52:24.409Z,74.02
2019-01-25T14:54:54.929Z,74.73
2019-01-25T14:57:25.566Z,74.99
2019-01-25T14:59:56.443Z,75.90
2019-01-25T15:02:26.946Z,75.90
2019-01-25T15:04:57.405Z,75.45
2019-01-25T15:07:27.887Z,75.11
2019-01-25T15:09:58.400Z,76.28
2019-01-25T15:12:28.879Z,75.75
2019-01-25T15:14:59.328Z,75.75
2019-01-25T15:17:30.118Z,75.65
2019-01-25T15:20:00.641Z,75.47
2019-01-25T15:22:31.629Z,74.11
2019-01-25T15:25:02.133Z,74.11
2019-01-25T15:27:33.077Z,75.38
2019-01-25T15:30:06.475Z,75.06
2019-01-25T15:32:37.341Z,75.74
2019-01-25T15:35:09.288Z,75.52
2019-01-25T15:37:39.763Z,75.52
2019-01-25T15:40:11.700Z,76.27
2019-01-25T15:42:42.759Z,74.68
2019-01-25T15:45:14.702Z,76.08
2019-01-25T15:47:45.205Z,76.08
2019-01-25T15:50:22.169Z,75.86
2019-01-25T15:52:52.669Z,76.82
2019-01-25T15:55:23.541Z,75.73
2019-01-25T15:57:54.715Z,75.73
2019-01-25T16:00:26.463Z,75.87
2019-01-25T16:02:57.036Z,75.88
2019-01-25T16:05:27.601Z,76.59
2019-01-25T16:07:58.118Z,76.69
2019-01-25T16:10:28.942Z,76.69
2019-01-25T16:12:59.409Z,77.39
2019-01-25T16:15:31.596Z,77.39
2019-01-25T16:18:02.057Z,77.45
2019-01-25T16:20:32.545Z,77.45
2019-01-25T16:23:03.064Z,77.92
2019-01-25T16:25:35.093Z,76.33
2019-01-25T16:28:06.023Z,76.60
2019-01-25T16:30:38.504Z,76.60
2019-01-25T16:33:09.097Z,77.13
2019-01-25T16:35:39.870Z,76.87
2019-01-25T16:38:10.834Z,78.24
2019-01-25T16:40:41.454Z,77.04
2019-01-25T16:43:12.827Z,77.12
2019-01-25T16:45:45.061Z,77.12
2019-01-25T16:48:15.662Z,77.01
2019-01-25T16:50:46.232Z,77.12
2019-01-25T16:53:16.754Z,77.12
2019-01-25T16:55:47.474Z,77.19
2019-01-25T16:58:20.345Z,76.93
2019-01-25T17:00:51.353Z,76.93
2019-01-25T17:03:22.228Z,77.62
2019-01-25T17:05:52.709Z,77.56
2019-01-25T17:08:23.235Z,77.65
2019-01-25T17:10:53.890Z,77.65
2019-01-25T17:13:24.729Z,77.78
2019-01-25T17:15:55.523Z,77.78
2019-01-25T17:18:26.215Z,77.39
2019-01-25T17:20:57.046Z,77.39
2019-01-25T17:23:27.558Z,77.02
2019-01-25T17:25:58.026Z,76.68
2019-01-25T17:28:28.524Z,77.22
2019-01-25T17:31:00.191Z,77.11
2019-01-25T17:33:31.239Z,77.31
2019-01-25T17:36:02.378Z,77.12
2019-01-25T17:38:33.565Z,77.02
2019-01-25T17:41:04.026Z,76.84
2019-01-25T17:43:34.482Z,77.51
2019-01-25T17:46:05.109Z,77.51
2019-01-25T17:48:36.003Z,77.54
2019-01-25T17:51:07.146Z,77.31
2019-01-25T17:53:38.191Z,77.31
2019-01-25T17:56:08.845Z,77.21
2019-01-25T17:58:39.395Z,77.21
2019-01-25T18:01:09.934Z,77.67
2019-01-25T18:03:42.227Z,76.97
2019-01-25T18:06:13.170Z,77.15
2019-01-25T18:08:44.575Z,77.08
2019-01-25T18:11:15.083Z,77.00
2019-01-25T18:13:45.623Z,77.00
2019-01-25T18:16:16.435Z,76.50
2019-01-25T18:18:47.838Z,76.67
2019-01-25T18:21:20.895Z,76.75
2019-01-25T18:23:52.791Z,76.82
2019-01-25T18:26:25.602Z,76.82
2019-01-25T18:29:09.671Z,77.20
2019-01-25T18:31:40.683Z,77.31
2019-01-25T18:34:11.503Z,77.91
2019-01-25T18:36:42.451Z,77.70
2019-01-25T18:39:12.947Z,77.85
2019-01-25T18:41:43.419Z,77.52
2019-01-25T18:44:13.947Z,77.34
2019-01-25T18:46:44.564Z,77.58
2019-01-25T18:49:15.293Z,77.34
2019-01-25T18:51:45.770Z,77.87
2019-01-25T18:54:16.793Z,77.88
2019-01-25T18:56:48.917Z,78.45
2019-01-25T18:59:19.813Z,78.70
2019-01-25T19:01:50.263Z,78.73
2019-01-25T19:04:21.130Z,79.39
2019-01-25T19:06:51.572Z,79.39
2019-01-25T19:09:22.085Z,79.84
2019-01-25T19:11:52.549Z,80.46
2019-01-25T19:14:23.162Z,81.00
2019-01-25T19:16:53.658Z,81.37
2019-01-25T19:19:24.729Z,82.08
2019-01-25T19:21:55.226Z,82.62
2019-01-25T19:24:25.691Z,82.76
2019-01-25T19:26:57.102Z,83.30
2019-01-25T19:29:28.003Z,83.67
2019-01-25T19:31:58.531Z,83.83
2019-01-25T19:34:29.027Z,84.04
2019-01-25T19:36:59.465Z,84.12
2019-01-25T19:39:32.494Z,84.33
2019-01-25T19:42:03.418Z,85.04
2019-01-25T19:44:33.955Z,85.04
2019-01-25T19:47:05.052Z,84.89
2019-01-25T19:49:35.516Z,85.37
2019-01-25T19:52:06.192Z,85.42
2019-01-25T19:54:38.033Z,85.64
2019-01-25T19:57:09.389Z,85.53
2019-01-25T19:59:39.890Z,86.20
2019-01-25T20:02:10.353Z,86.15
2019-01-25T20:04:43.572Z,86.69
2019-01-25T20:07:14.069Z,87.23
2019-01-25T20:09:44.899Z,87.18
2019-01-25T20:12:16.784Z,87.72
2019-01-25T20:14:47.265Z,87.91
2019-01-25T20:17:17.730Z,88.09
2019-01-25T20:19:50.565Z,87.68
2019-01-25T20:22:23.032Z,88.17
2019-01-25T20:24:54.510Z,88.29
2019-01-25T20:27:24.956Z,88.28
2019-01-25T20:29:55.501Z,89.21
2019-01-25T20:32:25.993Z,89.17
2019-01-25T20:34:56.452Z,89.56
2019-01-25T20:37:27.306Z,89.59
2019-01-25T20:39:57.833Z,89.64
2019-01-25T20:42:28.267Z,89.48
2019-01-25T20:44:58.737Z,90.03
2019-01-25T20:47:29.319Z,89.57
2019-01-25T20:50:02.989Z,90.14
2019-01-25T20:52:34.818Z,90.33
2019-01-25T20:55:06.510Z,90.45
2019-01-25T20:57:38.225Z,90.65
2019-01-25T21:00:16.150Z,90.69
2019-01-25T21:02:46.919Z,90.84
2019-01-25T21:05:18.969Z,90.71
2019-01-25T21:07:49.886Z,90.49
2019-01-25T21:10:21.768Z,91.14
2019-01-25T21:12:52.316Z,90.92
2019-01-25T21:15:25.165Z,91.36
2019-01-25T21:17:56.186Z,91.17
2019-01-25T21:20:32.460Z,91.17
2019-01-25T21:23:03.214Z,91.25
2019-01-25T21:25:34.355Z,91.78
2019-01-25T21:28:05.410Z,91.78
2019-01-25T21:30:36.197Z,92.35
2019-01-25T21:33:07.003Z,92.38
2019-01-25T21:35:37.562Z,92.21
2019-01-25T21:38:08.456Z,91.10
2019-01-25T21:40:39.313Z,92.08
2019-01-25T21:43:09.927Z,91.98
2019-01-25T21:45:43.174Z,92.28
2019-01-25T21:48:15.537Z,92.01
2019-01-25T21:50:47.329Z,91.48
2019-01-25T21:53:18.458Z,91.48
2019-01-25T21:55:49.334Z,91.86
2019-01-25T21:58:19.784Z,91.95
2019-01-25T22:00:50.310Z,91.95
2019-01-25T22:03:20.812Z,91.61
2019-01-25T22:05:53.199Z,91.08
2019-01-25T22:08:24.070Z,91.41
2019-01-25T22:10:55.064Z,91.38
2019-01-25T22:13:25.641Z,91.83
2019-01-25T22:15:56.164Z,91.43
2019-01-25T22:18:27.230Z,91.51
2019-01-25T22:20:59.893Z,91.79
2019-01-25T22:23:30.498Z,91.87
2019-01-25T22:26:01.982Z,91.79
2019-01-25T22:28:32.927Z,90.89
2019-01-25T22:31:04.118Z,91.72
2019-01-25T22:33:35.021Z,91.47
2019-01-25T22:36:05.607Z,91.62
2019-01-25T22:38:36.137Z,91.54
2019-01-25T22:41:06.603Z,91.69
2019-01-25T22:43:37.389Z,92.52
2019-01-25T22:46:08.293Z,92.11
2019-01-25T22:48:38.766Z,92.38
2019-01-25T22:51:09.290Z,91.77
2019-01-25T22:53:40.106Z,92.31
2019-01-25T22:56:10.999Z,92.24
2019-01-25T22:58:41.437Z,92.21
2019-01-25T23:01:22.283Z,91.76
2019-01-25T23:04:09.015Z,91.49
2019-01-25T23:06:49.440Z,92.60
2019-01-25T23:09:23.445Z,92.06
2019-01-25T23:11:53.893Z,92.17
2019-01-25T23:14:24.409Z,92.18
2019-01-25T23:16:54.855Z,91.93
2019-01-25T23:19:25.777Z,91.84
2019-01-25T23:21:56.214Z,92.47
2019-01-25T23:24:26.987Z,92.55
2019-01-25T23:26:57.458Z,92.99
2019-01-25T23:29:27.924Z,92.75
2019-01-25T23:31:58.838Z,92.93
2019-01-25T23:34:29.640Z,92.97
2019-01-25T23:37:00.089Z,92.78
2019-01-25T23:39:31.037Z,93.41
2019-01-25T23:42:01.474Z,93.01
2019-01-25T23:44:31.964Z,93.07
2019-01-25T23:47:02.407Z,92.79
2019-01-25T23:49:32.878Z,93.61
2019-01-25T23:52:03.709Z,92.87
2019-01-25T23:54:34.145Z,93.04
2019-01-25T23:57:04.624Z,92.99
2019-01-25T23:59:35.064Z,92.92
